Terminal Aerodrome Forecast
Issued by NWS

Home | Current Version | Previous Version | Text Only | Print | Product List | Glossary On
Versions: 1 2 3 4 5 6 7 8 9 10 11 12 13 14 15 16
665
FTUS43 KILX 080520
TAFBMI
TAF
KBMI 080520Z 0806/0906 27007KT P6SM SCT025 BKN050
     FM080800 28012KT P6SM VCSH OVC020
     FM081400 30016G24KT 3SM -SN BR OVC012
     FM090000 31014KT P6SM VCSH OVC015=

USA.gov is the U.S. government's official web portal to all federal, state and local government web resources and services.